createdAt,value
2022-12-04T00:01:28.077Z,0
2022-12-04T00:06:54.084Z,0
2022-12-04T00:12:13.085Z,0
2022-12-04T00:17:38.064Z,0
2022-12-04T00:22:55.482Z,0
2022-12-04T00:28:12.678Z,0
2022-12-04T00:38:50.169Z,0
2022-12-04T00:44:10.544Z,0
2022-12-04T00:49:28.020Z,0
2022-12-04T00:54:45.259Z,0
2022-12-04T01:00:07.498Z,0
2022-12-04T01:10:48.023Z,0
2022-12-04T01:16:05.435Z,0
2022-12-04T01:21:25.000Z,0
2022-12-04T01:26:59.668Z,0
2022-12-04T01:32:17.518Z,0
2022-12-04T01:37:34.868Z,0
2022-12-04T01:42:52.224Z,0
2022-12-04T01:48:09.430Z,0
2022-12-04T01:53:26.662Z,0
2022-12-04T02:04:04.670Z,0
2022-12-04T02:09:26.342Z,0
2022-12-04T02:14:44.204Z,0
2022-12-04T02:20:01.436Z,0
2022-12-04T02:30:40.530Z,0
2022-12-04T02:36:01.105Z,0
2022-12-04T02:41:39.727Z,0
2022-12-04T02:46:57.594Z,0
2022-12-04T02:52:14.885Z,0
2022-12-04T02:57:32.088Z,0
2022-12-04T03:02:49.808Z,0
2022-12-04T03:08:07.184Z,0
2022-12-04T03:13:24.525Z,0
2022-12-04T03:18:41.772Z,0
2022-12-04T03:23:59.117Z,0
2022-12-04T03:29:16.461Z,0
2022-12-04T03:34:33.991Z,0
2022-12-04T03:39:51.614Z,0
2022-12-04T03:45:08.885Z,0
2022-12-04T03:50:26.031Z,0
2022-12-04T03:55:43.256Z,0
2022-12-04T04:01:00.454Z,0
2022-12-04T04:06:18.059Z,0
2022-12-04T04:11:42.578Z,0
2022-12-04T04:17:00.121Z,0
2022-12-04T04:22:17.315Z,0
2022-12-04T04:27:41.656Z,0
2022-12-04T04:32:59.236Z,0
2022-12-04T04:38:16.438Z,0
2022-12-04T04:43:33.659Z,0
2022-12-04T04:48:51.100Z,0
2022-12-04T04:54:08.353Z,0
2022-12-04T04:59:27.859Z,0
2022-12-04T05:10:03.755Z,0
2022-12-04T05:15:21.057Z,0
2022-12-04T05:20:38.456Z,0
2022-12-04T05:25:55.820Z,0
2022-12-04T05:31:13.861Z,0
2022-12-04T05:36:31.389Z,0
2022-12-04T05:41:48.569Z,0
2022-12-04T05:47:06.013Z,0
2022-12-04T05:52:23.230Z,0
2022-12-04T05:57:40.640Z,0
2022-12-04T06:02:58.186Z,0
2022-12-04T06:08:15.691Z,0
2022-12-04T06:13:33.424Z,0
2022-12-04T06:18:50.854Z,0
2022-12-04T06:24:08.342Z,0
2022-12-04T06:29:25.638Z,0
2022-12-04T06:34:43.197Z,0
2022-12-04T06:40:00.324Z,0
2022-12-04T06:45:17.670Z,0
2022-12-04T06:50:34.967Z,0
2022-12-04T06:55:52.239Z,0
2022-12-04T07:01:09.666Z,0.9
2022-12-04T07:11:50.593Z,60.8
2022-12-04T07:17:10.082Z,89.2
2022-12-04T07:22:27.512Z,132.5
2022-12-04T07:27:44.467Z,191.3
2022-12-04T07:33:01.529Z,247.5
2022-12-04T07:38:18.324Z,283.8
2022-12-04T07:43:35.485Z,283.8
2022-12-04T07:48:52.603Z,291.3
2022-12-04T07:54:11.848Z,363.7
2022-12-04T07:59:29.204Z,385
2022-12-04T08:04:46.183Z,431.2
2022-12-04T08:10:03.599Z,485.4
2022-12-04T08:15:20.622Z,545
2022-12-04T08:26:47.598Z,656.7
2022-12-04T08:32:04.628Z,856.2
2022-12-04T08:42:31.726Z,967.1
2022-12-04T08:47:52.336Z,1076.7
2022-12-04T08:53:41.160Z,1150
2022-12-04T08:58:58.082Z,1280.8
2022-12-04T09:04:15.152Z,1587.5
2022-12-04T09:09:32.476Z,1917.5
2022-12-04T09:14:49.294Z,2155
2022-12-04T09:20:08.841Z,2053.8
2022-12-04T09:25:26.616Z,1834.6
2022-12-04T09:30:43.352Z,1877.1
2022-12-04T09:41:25.856Z,1962.1
2022-12-04T09:46:42.949Z,2007.9
2022-12-04T09:52:02.661Z,2274.2
2022-12-04T09:57:20.167Z,2560
2022-12-04T10:02:37.249Z,2408.3
2022-12-04T10:07:54.139Z,2492.9
2022-12-04T10:18:31.701Z,2591.3
2022-12-04T10:23:48.552Z,2680
2022-12-04T10:29:05.625Z,1905.4
2022-12-04T10:34:27.906Z,1937.9
2022-12-04T10:39:45.013Z,1949.6
2022-12-04T10:45:02.089Z,1777.9
2022-12-04T10:50:19.078Z,1839.6
2022-12-04T10:55:36.098Z,1755.4
2022-12-04T11:00:53.143Z,1914.2
2022-12-04T11:06:12.618Z,2152.5
2022-12-04T11:11:29.488Z,2497.9
2022-12-04T11:16:46.733Z,2857.1
2022-12-04T11:27:32.892Z,3080
2022-12-04T11:32:49.930Z,2530.4
2022-12-04T11:38:07.103Z,2369.2
2022-12-04T11:43:24.097Z,1986.7
2022-12-04T11:48:41.073Z,2110.4
2022-12-04T11:54:00.805Z,1929.2
2022-12-04T11:59:17.953Z,1785
2022-12-04T12:04:35.006Z,1353.3
2022-12-04T12:09:52.232Z,1414.6
2022-12-04T12:15:09.167Z,1479.2
2022-12-04T12:20:26.256Z,1443.3
2022-12-04T12:25:46.214Z,1565.4
2022-12-04T12:31:06.401Z,1634.6
2022-12-04T12:36:23.472Z,1629.6
2022-12-04T12:41:40.424Z,1800
2022-12-04T12:46:57.336Z,1755
2022-12-04T12:52:17.084Z,1938.7
2022-12-04T12:57:34.252Z,1832.9
2022-12-04T13:02:52.150Z,2026.7
2022-12-04T13:08:10.131Z,1534.6
2022-12-04T13:13:27.268Z,1710.4
2022-12-04T13:18:44.351Z,1587.9
2022-12-04T13:24:04.246Z,1836.7
2022-12-04T13:29:21.364Z,1761.7
2022-12-04T13:34:40.805Z,1762.1
2022-12-04T13:39:57.974Z,1706.7
2022-12-04T13:45:32.743Z,1366.7
2022-12-04T13:50:49.904Z,1312.5
2022-12-04T13:56:13.535Z,1211.3
2022-12-04T14:01:32.817Z,1215.4
2022-12-04T14:06:52.373Z,1275
2022-12-04T14:12:09.329Z,1143.7
2022-12-04T14:17:26.418Z,1030.8
2022-12-04T14:22:43.493Z,882.1
2022-12-04T14:28:00.445Z,804.6
2022-12-04T14:33:17.283Z,670
2022-12-04T14:38:34.113Z,655
2022-12-04T14:49:10.804Z,528.3
2022-12-04T14:59:47.855Z,287.1
2022-12-04T15:10:27.124Z,198.8
2022-12-04T15:15:44.376Z,126.7
2022-12-04T15:21:12.157Z,80
2022-12-04T15:26:29.360Z,57.1
2022-12-04T15:31:46.310Z,35
2022-12-04T15:37:03.200Z,21.7
2022-12-04T15:42:20.598Z,0.9
2022-12-04T15:47:37.894Z,0
2022-12-04T15:52:55.101Z,0
2022-12-04T15:58:12.810Z,0
2022-12-04T16:03:30.075Z,0
2022-12-04T16:08:47.588Z,0
2022-12-04T16:14:04.703Z,0
2022-12-04T16:19:22.121Z,0
2022-12-04T16:24:39.262Z,0
2022-12-04T16:29:56.552Z,0
2022-12-04T16:35:13.832Z,0
2022-12-04T16:40:31.210Z,0
2022-12-04T16:45:48.473Z,0
2022-12-04T16:51:05.631Z,0
2022-12-04T16:56:22.872Z,0
2022-12-04T17:01:40.111Z,0
2022-12-04T17:06:57.532Z,0
2022-12-04T17:12:14.668Z,0
2022-12-04T17:17:32.522Z,0
2022-12-04T17:23:00.745Z,0
2022-12-04T17:28:18.094Z,0
2022-12-04T17:33:35.309Z,0
2022-12-04T17:39:03.231Z,0
2022-12-04T17:44:20.740Z,0
2022-12-04T17:49:38.116Z,0
2022-12-04T17:54:55.613Z,0
2022-12-04T18:00:16.154Z,0
2022-12-04T18:05:33.308Z,0
2022-12-04T18:10:51.282Z,0
2022-12-04T18:16:08.797Z,0
2022-12-04T18:21:26.183Z,0
2022-12-04T18:32:03.633Z,0
2022-12-04T18:37:21.828Z,0
2022-12-04T18:42:39.506Z,0
2022-12-04T18:53:17.271Z,0
2022-12-04T18:58:34.977Z,0
2022-12-04T19:03:52.341Z,0
2022-12-04T19:09:09.757Z,0
2022-12-04T19:14:29.463Z,0
2022-12-04T19:19:47.142Z,0
2022-12-04T19:25:13.284Z,0
2022-12-04T19:30:30.708Z,0
2022-12-04T19:35:47.952Z,0
2022-12-04T19:41:05.202Z,0
2022-12-04T19:46:22.492Z,0
2022-12-04T19:51:39.995Z,0
2022-12-04T19:56:57.400Z,0
2022-12-04T20:02:14.715Z,0
2022-12-04T20:07:32.287Z,0
2022-12-04T20:12:51.833Z,0
2022-12-04T20:18:09.423Z,0
2022-12-04T20:23:26.990Z,0
2022-12-04T20:28:53.499Z,0
2022-12-04T20:34:11.253Z,0
2022-12-04T20:39:28.504Z,0
2022-12-04T20:44:45.760Z,0
2022-12-04T20:50:02.930Z,0
2022-12-04T20:55:20.333Z,0
2022-12-04T21:00:37.551Z,0
2022-12-04T21:05:58.023Z,0
2022-12-04T21:11:15.223Z,0
2022-12-04T21:16:32.708Z,0
2022-12-04T21:21:50.098Z,0
2022-12-04T21:27:07.411Z,0
2022-12-04T21:32:24.722Z,0
2022-12-04T21:37:49.116Z,0
2022-12-04T21:43:06.509Z,0
2022-12-04T21:48:23.881Z,0
2022-12-04T21:53:42.627Z,0
2022-12-04T21:59:17.282Z,0
2022-12-04T22:04:35.081Z,0
2022-12-04T22:09:52.307Z,0
2022-12-04T22:15:09.334Z,0
2022-12-04T22:20:26.520Z,0
2022-12-04T22:25:46.868Z,0
2022-12-04T22:31:04.074Z,0
2022-12-04T22:36:21.682Z,0
2022-12-04T22:41:38.914Z,0
2022-12-04T22:46:56.740Z,0
2022-12-04T22:52:22.259Z,0
2022-12-04T22:57:39.839Z,0
2022-12-04T23:02:57.369Z,0
2022-12-04T23:08:15.224Z,0
2022-12-04T23:13:32.722Z,0
2022-12-04T23:18:50.003Z,0
2022-12-04T23:24:08.886Z,0
2022-12-04T23:35:13.790Z,0
2022-12-04T23:40:30.944Z,0
2022-12-04T23:45:56.822Z,0
2022-12-04T23:51:15.275Z,0
2022-12-04T23:56:32.505Z,0
